createdAt,value
2018-04-14T00:01:18.138Z,7.80
2018-04-14T00:03:45.670Z,9.50
2018-04-14T00:06:13.230Z,8.27
2018-04-14T00:08:40.770Z,7.67
2018-04-14T00:11:08.341Z,8.60
2018-04-14T00:13:35.895Z,8.53
2018-04-14T00:16:03.474Z,10.37
2018-04-14T00:18:31.019Z,9.63
2018-04-14T00:20:58.614Z,9.63
2018-04-14T00:23:26.168Z,10.10
2018-04-14T00:25:53.719Z,9.43
2018-04-14T00:28:21.292Z,10.50
2018-04-14T00:30:48.847Z,10.57
2018-04-14T00:33:16.416Z,9.57
2018-04-14T00:35:44.719Z,10.33
2018-04-14T00:38:12.281Z,10.33
2018-04-14T00:40:39.835Z,10.60
2018-04-14T00:43:07.563Z,10.90
2018-04-14T00:45:35.120Z,12.37
2018-04-14T00:48:02.699Z,10.60
2018-04-14T00:50:30.255Z,10.60
2018-04-14T00:53:03.764Z,11.83
2018-04-14T00:55:31.315Z,11.70
2018-04-14T00:57:58.896Z,10.73
2018-04-14T01:00:26.435Z,11.07
2018-04-14T01:02:54.007Z,12.57
2018-04-14T01:05:21.565Z,12.00
2018-04-14T01:07:49.152Z,11.20
2018-04-14T01:10:17.472Z,10.30
2018-04-14T01:12:45.051Z,10.10
2018-04-14T01:15:12.612Z,11.33
2018-04-14T01:17:40.178Z,10.67
2018-04-14T01:20:07.744Z,13.63
2018-04-14T01:22:35.302Z,12.80
2018-04-14T01:25:02.871Z,12.40
2018-04-14T01:27:30.418Z,10.70
2018-04-14T01:29:57.999Z,11.87
2018-04-14T01:32:26.341Z,12.57
2018-04-14T01:34:53.901Z,11.20
2018-04-14T01:37:21.447Z,11.20
2018-04-14T01:39:49.012Z,11.10
2018-04-14T01:42:16.557Z,11.90
2018-04-14T01:44:44.123Z,11.07
2018-04-14T01:47:11.671Z,11.00
2018-04-14T01:49:39.240Z,12.00
2018-04-14T01:52:06.788Z,11.90
2018-04-14T01:54:34.362Z,12.87
2018-04-14T01:57:01.914Z,13.80
2018-04-14T01:59:29.493Z,13.57
2018-04-14T02:01:57.031Z,13.40
2018-04-14T02:04:24.578Z,11.77
2018-04-14T02:06:52.147Z,13.30
2018-04-14T02:09:19.685Z,11.67
2018-04-14T02:11:47.270Z,12.60
2018-04-14T02:14:14.818Z,12.30
2018-04-14T02:16:42.383Z,15.00
2018-04-14T02:19:09.932Z,12.07
2018-04-14T02:21:37.522Z,11.57
2018-04-14T02:24:05.069Z,12.60
2018-04-14T02:26:32.642Z,14.50
2018-04-14T02:29:00.190Z,14.30
2018-04-14T02:31:27.769Z,15.70
2018-04-14T02:33:55.322Z,16.40
2018-04-14T02:36:22.902Z,16.63
2018-04-14T02:38:50.463Z,16.53
2018-04-14T02:41:18.037Z,15.00
2018-04-14T02:43:45.577Z,14.10
2018-04-14T02:46:13.154Z,15.60
2018-04-14T02:48:40.712Z,14.30
2018-04-14T02:51:08.257Z,12.97
2018-04-14T02:53:35.833Z,13.67
2018-04-14T02:56:03.384Z,12.13
2018-04-14T02:58:30.959Z,12.57
2018-04-14T03:00:59.273Z,14.53
2018-04-14T03:03:26.852Z,14.50
2018-04-14T03:05:54.401Z,12.80
2018-04-14T03:08:21.972Z,11.70
2018-04-14T03:10:49.521Z,12.20
2018-04-14T03:13:17.257Z,11.90
2018-04-14T03:15:44.851Z,11.30
2018-04-14T03:18:12.425Z,13.37
2018-04-14T03:20:39.983Z,13.53
2018-04-14T03:23:07.573Z,13.43
2018-04-14T03:25:35.133Z,15.97
2018-04-14T03:28:03.476Z,17.30
2018-04-14T03:30:31.050Z,16.97
2018-04-14T03:32:58.624Z,16.27
2018-04-14T03:35:26.176Z,16.23
2018-04-14T03:37:53.751Z,15.63
2018-04-14T03:40:22.120Z,15.83
2018-04-14T03:42:49.664Z,18.77
2018-04-14T03:45:17.237Z,18.00
2018-04-14T03:47:44.778Z,14.63
2018-04-14T03:50:12.345Z,16.43
2018-04-14T03:52:39.882Z,14.40
2018-04-14T03:55:07.453Z,14.63
2018-04-14T03:57:34.995Z,16.07
2018-04-14T04:00:02.567Z,15.17
2018-04-14T04:02:30.119Z,13.97
2018-04-14T04:04:57.683Z,14.53
2018-04-14T04:07:25.229Z,14.83
2018-04-14T04:09:52.813Z,13.40
2018-04-14T04:12:20.355Z,13.20
2018-04-14T04:14:47.925Z,16.43
2018-04-14T04:17:15.462Z,15.73
2018-04-14T04:19:54.953Z,16.60
2018-04-14T04:22:34.306Z,18.80
2018-04-14T04:28:05.039Z,16.70
2018-04-14T04:30:32.603Z,14.43
2018-04-14T04:33:00.145Z,15.70
2018-04-14T04:35:27.717Z,16.77
2018-04-14T04:37:55.272Z,16.13
2018-04-14T04:40:22.843Z,19.07
2018-04-14T04:42:50.395Z,21.23
2018-04-14T04:45:18.016Z,19.10
2018-04-14T04:47:45.610Z,18.87
2018-04-14T04:50:13.182Z,16.87
2018-04-14T04:52:40.760Z,17.03
2018-04-14T04:55:09.121Z,15.80
2018-04-14T04:57:36.695Z,17.30
2018-04-14T05:00:05.032Z,16.83
2018-04-14T05:02:32.595Z,16.00
2018-04-14T05:05:00.144Z,14.77
2018-04-14T05:07:27.726Z,15.33
2018-04-14T05:09:55.339Z,16.40
2018-04-14T05:12:22.939Z,15.60
2018-04-14T05:14:50.481Z,14.87
2018-04-14T05:17:18.065Z,14.63
2018-04-14T05:19:45.625Z,12.43
2018-04-14T05:22:13.289Z,13.50
2018-04-14T05:24:40.938Z,14.70
2018-04-14T05:27:08.535Z,13.23
2018-04-14T05:29:36.861Z,14.33
2018-04-14T05:32:05.177Z,14.03
2018-04-14T05:34:33.527Z,13.97
2018-04-14T05:37:01.122Z,14.00
2018-04-14T05:39:29.474Z,14.93
2018-04-14T05:41:57.031Z,14.60
2018-04-14T05:44:24.609Z,12.90
2018-04-14T05:46:53.669Z,14.03
2018-04-14T05:49:21.230Z,13.50
2018-04-14T05:51:48.780Z,14.87
2018-04-14T05:54:16.360Z,14.93
2018-04-14T05:56:43.907Z,15.30
2018-04-14T05:59:11.491Z,15.70
2018-04-14T06:01:39.026Z,15.27
2018-04-14T06:04:06.590Z,16.70
2018-04-14T06:06:34.149Z,15.63
2018-04-14T06:09:01.783Z,15.93
2018-04-14T06:11:30.063Z,15.83
2018-04-14T06:13:57.639Z,16.73
2018-04-14T06:16:25.188Z,18.57
2018-04-14T06:18:52.759Z,15.30
2018-04-14T06:21:20.325Z,16.50
2018-04-14T06:23:47.890Z,16.73
2018-04-14T06:26:15.440Z,15.63
2018-04-14T06:28:43.099Z,17.87
2018-04-14T06:31:10.655Z,19.70
2018-04-14T06:33:38.216Z,19.40
2018-04-14T06:36:05.767Z,19.20
2018-04-14T06:38:33.323Z,19.53
2018-04-14T06:41:00.975Z,19.20
2018-04-14T06:43:28.528Z,17.77
2018-04-14T06:45:56.861Z,18.97
2018-04-14T06:48:24.406Z,19.17
2018-04-14T06:50:51.994Z,18.00
2018-04-14T06:53:19.533Z,17.80
2018-04-14T06:55:47.153Z,18.50
2018-04-14T06:58:15.438Z,17.43
2018-04-14T07:00:42.999Z,16.07
2018-04-14T07:03:10.561Z,17.23
2018-04-14T07:05:38.135Z,17.67
2018-04-14T07:08:05.670Z,18.97
2018-04-14T07:10:33.246Z,17.40
2018-04-14T07:13:00.783Z,17.50
2018-04-14T07:15:28.361Z,15.73
2018-04-14T07:17:55.946Z,14.97
2018-04-14T07:20:23.520Z,16.40
2018-04-14T07:22:51.058Z,16.90
2018-04-14T07:25:18.636Z,15.50
2018-04-14T07:27:46.188Z,14.30
2018-04-14T07:30:13.776Z,16.00
2018-04-14T07:32:42.105Z,15.20
2018-04-14T07:35:09.679Z,15.00
2018-04-14T07:37:37.290Z,13.77
2018-04-14T07:40:04.883Z,13.70
2018-04-14T07:42:32.561Z,14.90
2018-04-14T07:45:00.146Z,13.90
2018-04-14T07:47:27.733Z,14.20
2018-04-14T07:49:56.048Z,13.20
2018-04-14T07:52:23.610Z,13.33
2018-04-14T07:54:51.161Z,13.30
2018-04-14T07:57:18.823Z,13.60
2018-04-14T07:59:46.382Z,12.60
2018-04-14T08:02:14.250Z,11.90
2018-04-14T08:04:42.895Z,11.97
2018-04-14T08:07:10.478Z,10.80
2018-04-14T08:09:38.036Z,9.37
2018-04-14T08:12:05.614Z,10.50
2018-04-14T08:14:33.168Z,10.10
2018-04-14T08:17:00.760Z,9.47
2018-04-14T08:19:28.307Z,9.60
2018-04-14T08:21:55.887Z,10.27
2018-04-14T08:24:23.436Z,9.20
2018-04-14T08:26:50.984Z,8.73
2018-04-14T08:29:18.564Z,9.77
2018-04-14T08:31:46.109Z,8.90
2018-04-14T08:34:13.683Z,8.63
2018-04-14T08:36:41.236Z,10.20
2018-04-14T08:39:08.807Z,8.83
2018-04-14T08:41:36.373Z,9.80
2018-04-14T08:44:03.934Z,8.80
2018-04-14T08:46:31.507Z,9.70
2018-04-14T08:48:59.846Z,9.60
2018-04-14T08:51:27.385Z,8.90
2018-04-14T08:53:54.948Z,9.10
2018-04-14T08:56:22.547Z,9.73
2018-04-14T08:58:50.076Z,8.80
2018-04-14T09:01:17.645Z,8.77
2018-04-14T09:03:45.262Z,8.57
2018-04-14T09:06:12.873Z,9.20
2018-04-14T09:08:40.415Z,7.80
2018-04-14T09:11:07.956Z,8.80
2018-04-14T09:13:35.532Z,7.70
2018-04-14T09:16:03.105Z,8.30
2018-04-14T09:18:32.178Z,7.30
2018-04-14T09:20:59.763Z,7.33
2018-04-14T09:23:27.311Z,8.07
2018-04-14T09:25:54.878Z,6.83
2018-04-14T09:28:22.431Z,6.60
2018-04-14T09:30:49.997Z,6.47
2018-04-14T09:33:17.527Z,6.13
2018-04-14T09:35:45.104Z,4.97
2018-04-14T09:38:15.996Z,4.70
2018-04-14T09:40:44.324Z,5.07
2018-04-14T09:43:11.880Z,4.27
2018-04-14T09:45:39.443Z,4.00
2018-04-14T09:48:07.003Z,3.27
2018-04-14T09:50:34.569Z,2.53
2018-04-14T09:53:02.116Z,2.77
2018-04-14T09:55:31.405Z,3.60
2018-04-14T09:57:58.938Z,2.80
2018-04-14T10:00:27.262Z,1.93
2018-04-14T10:03:00.710Z,2.37
2018-04-14T10:05:28.531Z,1.43
2018-04-14T10:07:56.844Z,1.40
2018-04-14T10:10:25.215Z,1.30
2018-04-14T10:12:52.751Z,1.47
2018-04-14T10:15:21.083Z,2.07
2018-04-14T10:17:48.652Z,1.80
2018-04-14T10:20:16.287Z,2.13
2018-04-14T10:22:43.879Z,1.87
2018-04-14T10:25:11.422Z,1.80
2018-04-14T10:27:38.995Z,1.57
2018-04-14T10:30:06.543Z,1.70
2018-04-14T10:32:34.107Z,0.97
2018-04-14T10:35:01.652Z,1.07
2018-04-14T10:37:29.280Z,1.20
2018-04-14T10:39:56.877Z,1.30
2018-04-14T10:42:24.459Z,1.10
2018-04-14T10:44:52.006Z,1.10
2018-04-14T10:47:19.583Z,1.50
2018-04-14T10:49:47.133Z,1.00
2018-04-14T10:52:14.749Z,1.20
2018-04-14T10:54:42.292Z,1.30
2018-04-14T10:57:09.869Z,0.93
2018-04-14T10:59:37.410Z,1.40
2018-04-14T11:02:04.971Z,1.33
2018-04-14T11:04:32.546Z,1.10
2018-04-14T11:07:00.086Z,1.10
2018-04-14T11:09:27.654Z,0.83
2018-04-14T11:11:55.201Z,1.10
2018-04-14T11:14:22.782Z,0.70
2018-04-14T11:16:50.320Z,1.20
2018-04-14T11:19:17.880Z,2.00
2018-04-14T11:21:45.428Z,0.70
2018-04-14T11:24:13.754Z,0.83
2018-04-14T11:26:42.053Z,0.87
2018-04-14T11:29:09.729Z,0.70
2018-04-14T11:31:37.282Z,0.80
2018-04-14T11:34:04.882Z,0.90
2018-04-14T11:36:32.425Z,1.00
2018-04-14T11:38:59.981Z,0.60
2018-04-14T11:41:27.518Z,1.03
2018-04-14T11:43:55.078Z,0.70
2018-04-14T11:46:22.628Z,0.70
2018-04-14T11:48:50.227Z,0.93
2018-04-14T11:51:17.766Z,0.60
2018-04-14T11:53:45.308Z,0.80
2018-04-14T11:56:12.885Z,0.60
2018-04-14T11:58:40.428Z,0.50
2018-04-14T12:01:07.991Z,0.53
2018-04-14T12:03:35.531Z,0.80
2018-04-14T12:06:03.860Z,0.70
2018-04-14T12:08:31.408Z,0.80
2018-04-14T12:10:58.970Z,0.90
2018-04-14T12:13:26.619Z,0.97
2018-04-14T12:15:54.176Z,0.90
2018-04-14T12:18:21.712Z,0.77
2018-04-14T12:20:49.280Z,0.50
2018-04-14T12:23:16.822Z,0.70
2018-04-14T12:25:45.145Z,0.80
2018-04-14T12:28:12.700Z,0.90
2018-04-14T12:30:40.271Z,1.13
2018-04-14T12:33:07.804Z,1.00
2018-04-14T12:35:35.364Z,0.90
2018-04-14T12:40:36.720Z,0.80
2018-04-14T12:43:04.250Z,1.13
2018-04-14T12:45:31.825Z,0.83
2018-04-14T12:48:00.150Z,1.10
2018-04-14T12:50:27.716Z,0.90
2018-04-14T12:52:55.300Z,0.80
2018-04-14T12:55:22.872Z,1.00
2018-04-14T12:57:51.179Z,1.10
2018-04-14T13:00:18.748Z,0.80
2018-04-14T13:02:46.302Z,1.00
2018-04-14T13:05:13.851Z,0.77
2018-04-14T13:07:41.432Z,1.10
2018-04-14T13:10:08.973Z,0.80
2018-04-14T13:12:36.542Z,0.90
2018-04-14T13:15:04.095Z,0.77
2018-04-14T13:17:31.655Z,1.30
2018-04-14T13:19:59.194Z,1.00
2018-04-14T13:22:27.554Z,1.07
2018-04-14T13:24:55.110Z,0.73
2018-04-14T13:27:23.460Z,0.60
2018-04-14T13:29:50.993Z,0.80
2018-04-14T13:32:18.564Z,0.90
2018-04-14T13:34:46.104Z,0.80
2018-04-14T13:37:13.679Z,0.80
2018-04-14T13:39:41.232Z,0.97
2018-04-14T13:42:08.808Z,1.00
2018-04-14T13:44:36.347Z,0.77
2018-04-14T13:47:03.915Z,0.80
2018-04-14T13:49:31.470Z,1.07
2018-04-14T13:51:59.056Z,0.93
2018-04-14T13:54:26.614Z,1.03
2018-04-14T13:56:54.162Z,1.10
2018-04-14T13:59:21.740Z,0.80
2018-04-14T14:01:49.279Z,0.80
2018-04-14T14:04:16.843Z,0.80
2018-04-14T14:06:44.432Z,0.67
2018-04-14T14:09:11.957Z,1.40
2018-04-14T14:11:39.502Z,2.13
2018-04-14T14:14:07.072Z,1.10
2018-04-14T14:16:34.609Z,1.10
2018-04-14T14:19:02.172Z,0.77
2018-04-14T14:21:29.704Z,1.20
2018-04-14T14:23:58.055Z,1.00
2018-04-14T14:26:25.599Z,1.20
2018-04-14T14:28:53.178Z,1.20
2018-04-14T14:31:20.712Z,1.20
2018-04-14T14:33:48.277Z,1.40
2018-04-14T14:36:15.823Z,1.20
2018-04-14T14:38:43.391Z,1.40
2018-04-14T14:41:10.936Z,1.00
2018-04-14T14:43:38.510Z,1.00
2018-04-14T14:46:06.060Z,1.00
2018-04-14T14:48:33.648Z,1.27
2018-04-14T14:51:01.195Z,1.13
2018-04-14T14:53:28.745Z,1.87
2018-04-14T14:55:56.317Z,1.10
2018-04-14T14:58:23.859Z,1.00
2018-04-14T15:00:51.440Z,1.10
2018-04-14T15:03:19.759Z,1.10
2018-04-14T15:05:48.105Z,1.33
2018-04-14T15:08:15.644Z,1.33
2018-04-14T15:10:43.215Z,1.27
2018-04-14T15:13:10.759Z,1.40
2018-04-14T15:15:38.313Z,1.43
2018-04-14T15:18:05.847Z,1.30
2018-04-14T15:20:33.443Z,1.53
2018-04-14T15:23:00.992Z,2.03
2018-04-14T15:25:28.568Z,0.90
2018-04-14T15:27:56.114Z,1.30
2018-04-14T15:30:23.682Z,1.97
2018-04-14T15:32:51.229Z,1.83
2018-04-14T15:35:18.793Z,1.47
2018-04-14T15:37:46.337Z,1.13
2018-04-14T15:40:14.045Z,1.20
2018-04-14T15:42:41.643Z,1.70
2018-04-14T15:45:09.200Z,1.70
2018-04-14T15:47:36.781Z,1.10
2018-04-14T15:50:04.344Z,1.20
2018-04-14T15:52:31.915Z,1.73
2018-04-14T15:55:00.242Z,1.97
2018-04-14T15:57:28.584Z,1.27
2018-04-14T15:59:56.140Z,5.90
2018-04-14T16:02:23.726Z,3.33
2018-04-14T16:04:51.285Z,1.27
2018-04-14T16:07:18.846Z,1.60
2018-04-14T16:09:46.373Z,1.93
2018-04-14T16:12:13.943Z,2.00
2018-04-14T16:14:41.496Z,2.20
2018-04-14T16:17:09.189Z,1.77
2018-04-14T16:19:37.409Z,1.30
2018-04-14T16:22:04.988Z,1.33
2018-04-14T16:24:32.530Z,1.10
2018-04-14T16:27:00.092Z,1.10
2018-04-14T16:29:27.665Z,1.30
2018-04-14T16:31:55.221Z,1.60
2018-04-14T16:34:22.798Z,0.90
2018-04-14T16:36:50.344Z,1.30
2018-04-14T16:39:17.923Z,1.07
2018-04-14T16:41:45.464Z,1.20
2018-04-14T16:44:13.047Z,2.07
2018-04-14T16:46:40.592Z,2.03
2018-04-14T16:49:08.159Z,1.97
2018-04-14T16:51:35.704Z,2.53
2018-04-14T16:54:03.281Z,4.90
2018-04-14T16:56:30.825Z,3.90
2018-04-14T16:58:58.395Z,3.93
2018-04-14T17:01:25.944Z,3.13
2018-04-14T17:03:53.553Z,2.50
2018-04-14T17:06:21.855Z,3.80
2018-04-14T17:08:49.432Z,3.50
2018-04-14T17:11:16.997Z,4.13
2018-04-14T17:13:44.598Z,4.03
2018-04-14T17:16:13.108Z,4.00
2018-04-14T17:18:40.655Z,3.27
2018-04-14T17:21:08.992Z,3.23
2018-04-14T17:23:36.528Z,4.07
2018-04-14T17:26:04.101Z,6.30
2018-04-14T17:28:31.646Z,4.77
2018-04-14T17:30:59.214Z,8.67
2018-04-14T17:33:26.812Z,18.03
2018-04-14T17:35:54.393Z,14.60
2018-04-14T17:38:21.944Z,13.80
2018-04-14T17:40:50.279Z,9.80
2018-04-14T17:43:18.326Z,5.53
2018-04-14T17:45:45.894Z,6.40
2018-04-14T17:48:13.452Z,6.27
2018-04-14T17:50:41.105Z,6.20
2018-04-14T17:53:08.652Z,8.00
2018-04-14T17:55:36.589Z,8.37
2018-04-14T17:58:04.969Z,7.10
2018-04-14T18:00:32.570Z,5.83
2018-04-14T18:03:00.116Z,4.87
2018-04-14T18:05:27.671Z,5.80
2018-04-14T18:07:55.224Z,9.67
2018-04-14T18:10:23.565Z,9.60
2018-04-14T18:12:51.137Z,7.50
2018-04-14T18:15:18.799Z,5.70
2018-04-14T18:17:46.371Z,6.13
2018-04-14T18:20:14.680Z,4.50
2018-04-14T18:22:42.243Z,3.97
2018-04-14T18:25:09.790Z,6.23
2018-04-14T18:27:37.369Z,6.63
2018-04-14T18:30:04.917Z,6.83
2018-04-14T18:32:32.490Z,6.80
2018-04-14T18:35:00.089Z,7.53
2018-04-14T18:37:27.640Z,7.20
2018-04-14T18:39:55.185Z,9.60
2018-04-14T18:42:22.773Z,17.27
2018-04-14T18:44:50.328Z,14.93
2018-04-14T18:47:17.899Z,12.00
2018-04-14T18:49:45.438Z,8.30
2018-04-14T18:52:12.983Z,10.73
2018-04-14T18:54:40.550Z,14.83
2018-04-14T18:57:08.871Z,17.00
2018-04-14T18:59:37.212Z,10.00
2018-04-14T19:02:04.746Z,8.87
2018-04-14T19:04:32.330Z,9.20
2018-04-14T19:06:59.884Z,13.23
2018-04-14T19:09:27.459Z,12.97
2018-04-14T19:11:55.003Z,8.90
2018-04-14T19:14:22.578Z,10.63
2018-04-14T19:16:50.124Z,11.23
2018-04-14T19:19:17.687Z,17.93
2018-04-14T19:21:45.254Z,16.50
2018-04-14T19:24:12.819Z,23.53
2018-04-14T19:26:40.366Z,15.87
2018-04-14T19:29:07.945Z,19.87
2018-04-14T19:31:35.481Z,30.93
2018-04-14T19:34:03.052Z,37.17
2018-04-14T19:36:30.605Z,40.40
2018-04-14T19:38:58.972Z,26.50
2018-04-14T19:41:26.519Z,33.00
2018-04-14T19:43:54.184Z,28.10
2018-04-14T19:46:21.736Z,31.90
2018-04-14T19:48:49.308Z,25.00
2018-04-14T19:51:16.874Z,32.90
2018-04-14T19:53:44.427Z,19.87
2018-04-14T19:56:12.005Z,19.57
2018-04-14T19:58:39.571Z,27.67
2018-04-14T20:01:07.138Z,20.57
2018-04-14T20:03:34.692Z,17.67
2018-04-14T20:06:02.283Z,19.43
2018-04-14T20:08:30.612Z,17.13
2018-04-14T20:10:58.262Z,18.83
2018-04-14T20:13:25.829Z,17.10
2018-04-14T20:15:53.400Z,16.10
2018-04-14T20:18:20.957Z,13.43
2018-04-14T20:20:48.536Z,13.67
2018-04-14T20:23:16.090Z,11.50
2018-04-14T20:25:43.664Z,9.57
2018-04-14T20:28:11.220Z,9.53
2018-04-14T20:30:39.564Z,9.43
2018-04-14T20:33:07.105Z,9.07
2018-04-14T20:35:34.730Z,8.73
2018-04-14T20:38:03.040Z,8.30
2018-04-14T20:40:30.603Z,11.90
2018-04-14T20:42:58.156Z,10.60
2018-04-14T20:45:25.725Z,9.23
2018-04-14T20:47:53.286Z,10.00
2018-04-14T20:50:20.857Z,9.03
2018-04-14T20:52:48.449Z,11.87
2018-04-14T20:55:15.983Z,12.87
2018-04-14T20:57:43.545Z,11.67
2018-04-14T21:00:11.096Z,10.13
2018-04-14T21:02:38.667Z,9.00
2018-04-14T21:05:06.209Z,9.70
2018-04-14T21:07:33.774Z,8.97
2018-04-14T21:10:01.386Z,7.63
2018-04-14T21:12:28.977Z,7.60
2018-04-14T21:14:56.519Z,7.80
2018-04-14T21:17:24.101Z,8.60
2018-04-14T21:19:51.760Z,8.67
2018-04-14T21:22:19.334Z,8.23
2018-04-14T21:24:46.887Z,8.20
2018-04-14T21:27:14.459Z,16.70
2018-04-14T21:29:41.990Z,11.00
2018-04-14T21:32:09.560Z,7.97
2018-04-14T21:34:37.104Z,7.70
2018-04-14T21:37:04.661Z,7.23
2018-04-14T21:39:32.261Z,7.70
2018-04-14T21:41:59.838Z,7.60
2018-04-14T21:44:27.409Z,6.33
2018-04-14T21:46:55.727Z,6.93
2018-04-14T21:49:23.297Z,6.93
2018-04-14T21:51:50.839Z,6.30
2018-04-14T21:54:18.410Z,5.77
2018-04-14T21:56:45.956Z,8.20
2018-04-14T21:59:13.532Z,8.60
2018-04-14T22:01:41.071Z,7.50
2018-04-14T22:04:08.645Z,7.60
2018-04-14T22:06:36.192Z,8.57
2018-04-14T22:09:03.772Z,16.37
2018-04-14T22:11:31.324Z,18.70
2018-04-14T22:13:58.913Z,25.37
2018-04-14T22:16:26.463Z,22.90
2018-04-14T22:18:54.039Z,17.07
2018-04-14T22:21:21.591Z,12.03
2018-04-14T22:23:49.170Z,12.10
2018-04-14T22:26:16.715Z,18.00
2018-04-14T22:28:44.295Z,16.47
2018-04-14T22:31:11.857Z,15.87
2018-04-14T22:33:40.195Z,23.93
2018-04-14T22:36:07.757Z,22.20
2018-04-14T22:38:35.333Z,12.40
2018-04-14T22:41:02.879Z,8.43
2018-04-14T22:43:30.428Z,9.70
2018-04-14T22:45:58.005Z,8.73
2018-04-14T22:48:25.545Z,11.03
2018-04-14T22:50:53.139Z,12.23
2018-04-14T22:53:21.372Z,10.20
2018-04-14T22:55:48.944Z,10.73
2018-04-14T22:58:16.500Z,10.63
2018-04-14T23:00:44.074Z,14.43
2018-04-14T23:03:11.633Z,10.53
2018-04-14T23:05:39.210Z,11.93
2018-04-14T23:08:06.763Z,10.93
2018-04-14T23:10:34.340Z,10.30
2018-04-14T23:13:01.887Z,11.37
2018-04-14T23:15:29.467Z,10.60
2018-04-14T23:17:57.784Z,8.63
2018-04-14T23:20:25.346Z,8.67
2018-04-14T23:22:52.912Z,9.43
2018-04-14T23:25:20.491Z,7.50
2018-04-14T23:27:48.131Z,8.90
2018-04-14T23:30:15.675Z,7.80
2018-04-14T23:32:43.290Z,7.53
2018-04-14T23:35:10.808Z,7.43
2018-04-14T23:37:38.372Z,5.70
2018-04-14T23:40:05.908Z,6.80
2018-04-14T23:42:33.478Z,6.50
2018-04-14T23:45:01.015Z,6.33
2018-04-14T23:47:29.348Z,6.60
2018-04-14T23:49:56.895Z,6.17
2018-04-14T23:52:24.447Z,6.50
2018-04-14T23:54:51.982Z,7.57
2018-04-14T23:57:19.539Z,7.63
2018-04-14T23:59:47.077Z,7.80
